Time;durP1;ratioP1;P1;durP2;ratioP2;P2;SDS_P1;SDS_P2;PMS_P1;PMS_P2;Temp;Humidity;BMP_temperature;BMP_pressure;BME280_temperature;BME280_humidity;BME280_pressure;Samples;Min_cycle;Max_cycle;Signal;HPM_P1;HPM_P2
2023/01/03 00:00:01;;;;;;;2.20;1.13;;;;;;;7.48;84.69;96623.75;4981221;28;20195;-84
2023/01/03 00:02:27;;;;;;;1.10;1.00;;;;;;;7.39;85.26;96622.59;5007973;28;21114;-85
2023/01/03 00:04:52;;;;;;;1.47;1.10;;;;;;;7.37;84.90;96619.31;4991654;28;20571;-83
2023/01/03 00:07:32;;;;;;;2.83;1.10;;;;;;;7.30;85.15;96615.47;4984384;28;20217;-83
2023/01/03 00:09:59;;;;;;;2.13;1.07;;;;;;;7.31;84.90;96611.13;4998612;28;21048;-82
2023/01/03 00:12:24;;;;;;;1.63;1.30;;;;;;;7.32;84.75;96607.59;4999918;28;20200;-83
2023/01/03 00:14:49;;;;;;;1.30;1.10;;;;;;;7.24;84.87;96609.88;4983921;28;20219;-83
2023/01/03 00:17:16;;;;;;;2.67;1.20;;;;;;;7.30;85.01;96618.06;4996680;28;20202;-84
2023/01/03 00:19:42;;;;;;;1.30;1.13;;;;;;;7.31;84.74;96624.03;4989445;28;20955;-86
2023/01/03 00:22:09;;;;;;;2.57;0.97;;;;;;;7.31;84.76;96632.63;4999322;28;20195;-87
2023/01/03 00:24:34;;;;;;;1.33;1.00;;;;;;;7.28;84.61;96637.19;4991860;28;20199;-84
2023/01/03 00:26:59;;;;;;;3.60;1.00;;;;;;;7.38;83.94;96633.88;4985130;28;20204;-86
2023/01/03 00:29:25;;;;;;;2.03;0.80;;;;;;;7.38;83.84;96639.03;5001848;28;20191;-82
2023/01/03 00:31:50;;;;;;;1.37;1.00;;;;;;;7.27;84.46;96633.75;5000456;28;20575;-83
2023/01/03 00:34:15;;;;;;;1.10;0.90;;;;;;;7.33;84.39;96635.09;4988876;28;20230;-84
2023/01/03 00:36:41;;;;;;;1.23;0.70;;;;;;;7.21;84.54;96641.91;4986479;28;20187;-85
2023/01/03 00:39:06;;;;;;;0.90;0.73;;;;;;;7.20;84.90;96634.25;4994110;28;20214;-84
2023/01/03 00:41:32;;;;;;;3.30;1.20;;;;;;;7.18;85.09;96641.28;4989959;28;20175;-84
2023/01/03 00:43:57;;;;;;;1.10;1.00;;;;;;;7.28;84.58;96634.59;4987551;28;20683;-84
2023/01/03 00:46:23;;;;;;;1.73;0.80;;;;;;;7.35;84.05;96634.09;4984528;28;20207;-83
2023/01/03 00:48:48;;;;;;;1.33;1.10;;;;;;;7.31;83.84;96627.44;4993430;28;20210;-84
2023/01/03 00:51:17;;;;;;;1.10;1.00;;;;;;;7.38;84.03;96623.53;4985248;28;20261;-83
2023/01/03 00:53:44;;;;;;;1.30;1.20;;;;;;;7.44;83.61;96617.16;4985117;28;20191;-85
2023/01/03 00:56:12;;;;;;;1.73;0.90;;;;;;;7.45;83.72;96618.81;4993479;28;20184;-84
2023/01/03 00:58:38;;;;;;;2.13;1.20;;;;;;;7.36;84.00;96620.25;4994066;28;21050;-85
2023/01/03 01:01:11;;;;;;;2.50;0.87;;;;;;;7.34;84.13;96634.19;4995181;28;20200;-85
2023/01/03 01:03:38;;;;;;;0.93;0.70;;;;;;;7.35;84.14;96626.34;5000026;28;20194;-85
2023/01/03 01:06:21;;;;;;;1.53;1.10;;;;;;;7.37;84.12;96631.41;4981777;28;20198;-86
2023/01/03 01:08:48;;;;;;;1.20;0.90;;;;;;;7.36;84.10;96634.91;5004275;28;20266;-85
2023/01/03 01:11:14;;;;;;;1.13;0.90;;;;;;;7.30;83.95;96636.13;4988633;28;20306;-84
2023/01/03 01:13:40;;;;;;;1.27;1.10;;;;;;;7.25;84.28;96634.81;5003414;28;20192;-84
2023/01/03 01:16:08;;;;;;;3.17;1.20;;;;;;;7.27;84.30;96640.69;4996102;28;20204;-83
2023/01/03 01:18:34;;;;;;;1.47;1.10;;;;;;;7.27;84.03;96645.84;4985328;28;20211;-84
2023/01/03 01:21:04;;;;;;;1.03;1.00;;;;;;;7.29;83.92;96644.00;4993808;28;20196;-84
2023/01/03 01:23:29;;;;;;;1.90;1.10;;;;;;;7.27;83.83;96653.59;4995427;28;20219;-84
2023/01/03 01:25:58;;;;;;;1.63;1.10;;;;;;;7.18;84.76;96649.88;4989910;28;20214;-84
2023/01/03 01:28:24;;;;;;;1.27;0.83;;;;;;;7.20;84.44;96655.75;4982076;28;20214;-84
2023/01/03 01:30:49;;;;;;;1.20;1.10;;;;;;;7.19;84.82;96661.03;4980448;28;20204;-85
2023/01/03 01:33:14;;;;;;;1.00;1.00;;;;;;;7.19;84.38;96658.44;5002825;28;20202;-85
2023/01/03 01:35:40;;;;;;;1.20;1.00;;;;;;;7.19;84.87;96654.09;4986399;28;20193;-84
2023/01/03 01:38:05;;;;;;;2.77;1.00;;;;;;;7.16;85.20;96661.25;4989487;28;20223;-84
2023/01/03 01:40:30;;;;;;;1.80;1.00;;;;;;;7.15;85.18;96659.56;4984240;28;20195;-83
2023/01/03 01:45:44;;;;;;;3.37;1.47;;;;;;;7.18;85.34;96657.63;5002145;28;20203;-83
2023/01/03 01:48:11;;;;;;;1.93;1.00;;;;;;;7.21;85.32;96664.34;5002698;28;20286;-84
2023/01/03 01:50:39;;;;;;;2.17;1.10;;;;;;;7.21;85.30;96656.59;4983734;28;20246;-84
2023/01/03 01:53:14;;;;;;;1.43;1.10;;;;;;;7.26;85.29;96646.78;4999168;28;20217;-83
2023/01/03 01:55:53;;;;;;;2.30;1.10;;;;;;;7.36;84.89;96640.09;5004343;28;20183;-84
2023/01/03 01:58:20;;;;;;;1.90;1.20;;;;;;;7.33;84.70;96645.44;4992231;28;20718;-84
2023/01/03 02:00:45;;;;;;;3.07;1.47;;;;;;;7.33;84.57;96648.00;4986692;28;20179;-85
2023/01/03 02:03:11;;;;;;;2.83;1.30;;;;;;;7.34;84.29;96647.94;4986787;28;20196;-83
2023/01/03 02:05:39;;;;;;;1.90;1.13;;;;;;;7.38;84.07;96653.72;5006124;28;20187;-85
2023/01/03 02:08:04;;;;;;;2.70;1.10;;;;;;;7.38;84.09;96656.31;4998471;28;20212;-84
2023/01/03 02:10:55;;;;;;;2.77;1.50;;;;;;;7.29;84.39;96659.50;4989777;28;20179;-84
2023/01/03 02:13:43;;;;;;;2.20;1.30;;;;;;;7.26;83.88;96660.53;5005350;28;20192;-86
2023/01/03 02:16:34;;;;;;;2.70;1.40;;;;;;;7.26;83.89;96657.13;5005474;28;20178;-84
2023/01/03 02:19:15;;;;;;;1.93;1.30;;;;;;;7.20;84.23;96655.75;4968819;28;20212;-85
2023/01/03 02:21:59;;;;;;;1.90;1.10;;;;;;;7.12;84.34;96652.84;4980929;28;20192;-84
2023/01/03 02:24:53;;;;;;;2.83;1.20;;;;;;;7.02;84.94;96651.78;5005673;28;20187;-84
2023/01/03 02:27:28;;;;;;;1.43;1.23;;;;;;;6.89;85.73;96654.34;4977070;28;20283;-85
2023/01/03 02:30:17;;;;;;;1.90;1.50;;;;;;;6.93;85.75;96660.94;4976269;28;20200;-86
2023/01/03 02:33:07;;;;;;;2.40;1.50;;;;;;;6.85;86.06;96654.63;4990234;28;20738;-85
2023/01/03 02:35:46;;;;;;;2.37;1.37;;;;;;;6.82;86.00;96650.47;5005550;28;20202;-86
2023/01/03 02:38:38;;;;;;;2.50;1.87;;;;;;;6.85;86.71;96649.44;5009989;28;20215;-86
2023/01/03 02:41:10;;;;;;;2.07;1.70;;;;;;;6.83;86.25;96644.38;4999456;28;20179;-84
2023/01/03 02:43:50;;;;;;;2.37;1.60;;;;;;;6.82;86.26;96633.25;4998070;28;20203;-84
2023/01/03 02:46:29;;;;;;;2.97;2.00;;;;;;;6.84;86.19;96642.63;4983744;28;20195;-84
2023/01/03 02:49:09;;;;;;;2.33;1.80;;;;;;;6.76;86.47;96650.88;4989738;28;20230;-84
2023/01/03 02:51:37;;;;;;;4.67;1.70;;;;;;;6.75;86.85;96660.38;4998755;28;20294;-83
2023/01/03 02:54:04;;;;;;;2.87;1.77;;;;;;;6.58;88.15;96652.03;5004215;28;20195;-84
2023/01/03 02:56:34;;;;;;;1.57;1.47;;;;;;;6.64;87.76;96659.41;4990594;28;20198;-84
2023/01/03 02:59:02;;;;;;;1.60;1.50;;;;;;;6.61;87.83;96657.81;5005599;28;20668;-86
2023/01/03 03:01:28;;;;;;;3.00;1.53;;;;;;;6.65;87.39;96673.94;4986637;28;20194;-86
2023/01/03 03:03:55;;;;;;;1.77;1.37;;;;;;;6.61;88.20;96667.31;4989224;28;20202;-85
2023/01/03 03:07:06;;;;;;;2.77;1.60;;;;;;;6.64;88.08;96657.63;4992562;28;20191;-83
2023/01/03 03:09:31;;;;;;;2.23;1.80;;;;;;;6.57;88.24;96656.34;5000681;28;20269;-86
2023/01/03 03:14:50;;;;;;;3.87;1.60;;;;;;;6.55;88.63;96665.97;5004660;28;20198;-85
2023/01/03 03:17:19;;;;;;;4.77;2.13;;;;;;;6.52;88.42;96658.38;4997974;28;20236;-84
2023/01/03 03:25:27;;;;;;;1.73;1.60;;;;;;;6.44;88.81;96651.13;5001473;28;20182;-85
2023/01/03 03:30:42;;;;;;;2.07;1.57;;;;;;;6.38;89.30;96648.94;4999966;28;20218;-85
2023/01/03 03:33:09;;;;;;;2.53;1.70;;;;;;;6.35;89.87;96645.69;4986350;28;20187;-85
2023/01/03 03:35:40;;;;;;;2.53;2.10;;;;;;;6.35;90.19;96653.44;4984768;28;20191;-87
2023/01/03 03:38:07;;;;;;;3.80;1.60;;;;;;;6.36;90.02;96657.69;4989114;28;20249;-85
2023/01/03 03:46:23;;;;;;;3.40;1.30;;;;;;;6.40;90.31;96665.16;5004214;28;20751;-85
2023/01/03 03:51:58;;;;;;;1.90;1.70;;;;;;;6.49;89.56;96659.41;4999922;28;20213;-84
2023/01/03 03:54:24;;;;;;;3.13;1.50;;;;;;;6.50;89.18;96663.66;5003925;28;20187;-85
2023/01/03 03:56:54;;;;;;;2.87;1.57;;;;;;;6.47;89.16;96670.75;5004609;28;20183;-84
2023/01/03 03:59:21;;;;;;;1.87;1.50;;;;;;;6.43;89.24;96675.25;4970581;28;20239;-85
2023/01/03 04:01:46;;;;;;;1.47;1.30;;;;;;;6.49;88.82;96672.31;5003264;28;20194;-83
2023/01/03 04:04:21;;;;;;;3.37;1.30;;;;;;;6.45;88.75;96676.03;4988763;28;20191;-84
2023/01/03 04:06:49;;;;;;;1.67;1.57;;;;;;;6.44;89.26;96666.59;4990790;28;20182;-84
2023/01/03 04:09:15;;;;;;;3.83;1.50;;;;;;;6.44;89.07;96668.34;5007536;28;20171;-84
2023/01/03 04:11:40;;;;;;;1.87;1.63;;;;;;;6.45;88.89;96665.69;5013349;28;20695;-85
2023/01/03 04:14:06;;;;;;;1.57;1.47;;;;;;;6.45;88.56;96655.38;5024061;28;20600;-84
2023/01/03 04:16:31;;;;;;;1.50;1.37;;;;;;;6.43;88.67;96664.94;5009252;28;20192;-84
2023/01/03 04:18:56;;;;;;;1.90;1.47;;;;;;;6.44;88.41;96664.03;5001304;28;20215;-84
2023/01/03 04:21:21;;;;;;;4.93;1.93;;;;;;;6.36;89.42;96666.28;4996042;28;20191;-85
2023/01/03 04:23:47;;;;;;;1.73;1.53;;;;;;;6.41;89.70;96676.28;5008582;28;20205;-85
2023/01/03 04:26:12;;;;;;;3.60;1.80;;;;;;;6.37;89.91;96669.69;4993580;28;20199;-84
2023/01/03 04:28:37;;;;;;;2.00;1.63;;;;;;;6.35;89.57;96674.09;4984785;28;20222;-83
2023/01/03 04:31:03;;;;;;;3.33;1.70;;;;;;;6.34;89.76;96675.84;4979964;28;20203;-84
2023/01/03 04:33:28;;;;;;;1.93;1.37;;;;;;;6.36;89.62;96670.56;5005144;28;20547;-84
2023/01/03 04:35:53;;;;;;;1.53;0.93;;;;;;;6.32;89.29;96672.53;4983897;28;20344;-84
2023/01/03 04:38:19;;;;;;;1.57;1.40;;;;;;;6.26;89.41;96675.47;5005286;28;20222;-84
2023/01/03 04:40:45;;;;;;;0.90;0.90;;;;;;;6.14;89.22;96677.06;4986052;28;20222;-86
2023/01/03 04:45:54;;;;;;;2.87;1.40;;;;;;;6.04;89.35;96670.81;5011073;28;20197;-84
2023/01/03 04:48:20;;;;;;;2.00;1.10;;;;;;;6.05;89.01;96676.78;4998251;28;20211;-86
2023/01/03 04:50:56;;;;;;;1.40;1.30;;;;;;;5.99;89.39;96683.13;5010814;28;20203;-85
2023/01/03 04:53:22;;;;;;;1.70;1.37;;;;;;;5.89;89.95;96682.00;4990617;28;20195;-85
2023/01/03 04:55:49;;;;;;;2.67;1.03;;;;;;;5.90;90.13;96673.34;5002373;28;20326;-84
2023/01/03 04:58:14;;;;;;;4.03;1.10;;;;;;;5.97;89.10;96683.22;4992814;28;20306;-85
2023/01/03 05:00:40;;;;;;;3.27;1.10;;;;;;;6.02;89.07;96687.28;5001957;28;20683;-84
2023/01/03 05:03:05;;;;;;;2.63;1.40;;;;;;;6.01;89.39;96685.59;5000887;28;20191;-85
2023/01/03 05:05:30;;;;;;;2.00;1.20;;;;;;;5.97;89.85;96684.97;4993669;28;20215;-84
2023/01/03 05:07:56;;;;;;;2.70;1.20;;;;;;;6.02;89.40;96685.53;4991211;28;20210;-85
2023/01/03 05:10:21;;;;;;;1.47;1.10;;;;;;;6.00;89.79;96678.78;4998896;28;20196;-83
2023/01/03 05:12:58;;;;;;;2.03;1.00;;;;;;;5.95;90.61;96674.75;5000936;28;20667;-83
2023/01/03 05:15:24;;;;;;;2.27;1.30;;;;;;;5.94;90.27;96667.94;4990534;28;20361;-85
2023/01/03 05:17:50;;;;;;;5.40;1.27;;;;;;;5.88;90.26;96662.28;5002618;28;20301;-84
2023/01/03 05:25:49;;;;;;;4.43;1.67;;;;;;;5.89;90.21;96675.09;4997276;28;20267;-82
2023/01/03 05:28:15;;;;;;;2.30;1.50;;;;;;;5.86;90.40;96674.44;4997884;28;20301;-83
2023/01/03 05:30:40;;;;;;;2.40;1.60;;;;;;;5.84;91.05;96677.13;4991717;28;20286;-84
2023/01/03 05:33:06;;;;;;;2.63;1.50;;;;;;;5.94;90.04;96688.56;4987536;28;20722;-85
2023/01/03 05:35:31;;;;;;;2.43;1.77;;;;;;;5.87;90.16;96692.41;4996368;28;20270;-84
2023/01/03 05:37:56;;;;;;;1.70;1.37;;;;;;;5.89;90.51;96698.28;4982298;28;20230;-83
2023/01/03 05:40:21;;;;;;;1.87;1.77;;;;;;;5.94;90.17;96703.22;4982143;28;20191;-83
2023/01/03 05:42:47;;;;;;;2.10;1.90;;;;;;;6.00;89.92;96704.59;4983249;28;20598;-82
2023/01/03 05:45:12;;;;;;;2.27;2.00;;;;;;;5.99;90.49;96702.94;4979403;28;20286;-84
2023/01/03 05:47:37;;;;;;;1.93;1.80;;;;;;;6.02;90.36;96700.19;4978898;28;20318;-82
2023/01/03 05:50:03;;;;;;;3.80;3.50;;;;;;;6.06;90.19;96696.50;5003578;28;20278;-84
2023/01/03 05:52:28;;;;;;;3.70;2.87;;;;;;;6.02;90.12;96700.19;5006061;28;20212;-84
2023/01/03 05:54:54;;;;;;;2.60;2.40;;;;;;;6.02;90.07;96701.00;4979513;28;20212;-85
2023/01/03 05:57:19;;;;;;;4.70;2.20;;;;;;;6.11;90.28;96705.63;5005656;28;20586;-84
2023/01/03 05:59:44;;;;;;;2.37;2.17;;;;;;;6.10;90.07;96700.56;4986771;28;20222;-84
2023/01/03 06:02:10;;;;;;;2.40;1.90;;;;;;;6.04;90.44;96698.34;4994494;28;20686;-83
2023/01/03 06:04:35;;;;;;;2.40;1.43;;;;;;;6.03;90.32;96699.25;4998582;28;20217;-83
2023/01/03 06:07:00;;;;;;;2.20;1.27;;;;;;;5.94;90.26;96706.63;4980149;28;20203;-83
2023/01/03 06:09:26;;;;;;;2.23;1.80;;;;;;;5.97;90.08;96708.19;4998842;28;20192;-83
2023/01/03 06:11:51;;;;;;;3.27;1.80;;;;;;;5.97;90.04;96709.00;4999955;28;20196;-83
2023/01/03 06:14:18;;;;;;;3.23;1.97;;;;;;;5.89;90.01;96697.47;4983871;28;20273;-84
2023/01/03 06:19:27;;;;;;;2.17;1.83;;;;;;;5.79;90.10;96709.25;4995429;28;20705;-84
2023/01/03 06:21:52;;;;;;;1.60;1.40;;;;;;;5.75;90.40;96712.94;4979363;28;20192;-84
2023/01/03 06:24:18;;;;;;;2.10;1.90;;;;;;;5.69;90.39;96724.41;5004295;28;20553;-84
2023/01/03 06:26:44;;;;;;;1.67;1.47;;;;;;;5.60;90.52;96722.38;4980883;28;20639;-85
2023/01/03 06:29:09;;;;;;;3.37;1.90;;;;;;;5.44;91.84;96716.44;4987143;28;20191;-85
2023/01/03 06:31:34;;;;;;;1.90;1.60;;;;;;;5.58;90.78;96719.06;4986330;28;20206;-86
2023/01/03 06:33:59;;;;;;;2.80;1.60;;;;;;;5.58;91.25;96724.22;4985896;28;20195;-85
2023/01/03 06:36:25;;;;;;;3.80;1.90;;;;;;;5.56;90.56;96720.88;4985948;28;20230;-85
2023/01/03 06:38:51;;;;;;;1.60;1.50;;;;;;;5.56;90.63;96720.88;5003193;28;20223;-85
2023/01/03 06:41:19;;;;;;;2.10;1.57;;;;;;;5.39;92.82;96729.59;4985562;28;20192;-83
2023/01/03 06:43:45;;;;;;;2.33;1.40;;;;;;;5.58;91.21;96721.63;4984037;28;20206;-84
2023/01/03 06:54:25;;;;;;;3.03;1.40;;;;;;;5.60;90.79;96720.63;5005958;28;20658;-84
2023/01/03 06:56:52;;;;;;;3.90;1.43;;;;;;;5.63;90.19;96723.00;4999769;28;20679;-83
2023/01/03 06:59:17;;;;;;;1.20;1.10;;;;;;;5.62;90.06;96726.50;4987944;28;20278;-84
2023/01/03 07:01:46;;;;;;;4.00;1.43;;;;;;;5.63;90.54;96725.59;4998475;28;20631;-85
2023/01/03 07:04:11;;;;;;;1.87;1.43;;;;;;;5.60;91.22;96725.78;4994482;28;20237;-86
2023/01/03 07:06:38;;;;;;;1.87;1.73;;;;;;;5.48;92.41;96723.06;4982039;28;20609;-85
2023/01/03 07:09:03;;;;;;;3.23;1.47;;;;;;;5.67;90.93;96732.25;5000519;28;20683;-88
2023/01/03 07:11:29;;;;;;;4.07;1.10;;;;;;;5.69;90.83;96729.56;5006524;28;20225;-86
2023/01/03 07:13:57;;;;;;;1.53;1.10;;;;;;;5.68;90.57;96730.50;4989820;28;20206;-85
2023/01/03 07:16:28;;;;;;;2.57;1.00;;;;;;;5.72;90.41;96737.09;4990963;28;20644;-84
2023/01/03 07:18:54;;;;;;;3.03;1.27;;;;;;;5.79;90.05;96743.56;4987370;28;20219;-85
2023/01/03 07:21:20;;;;;;;1.97;1.40;;;;;;;5.75;90.33;96736.94;4991097;28;20194;-83
2023/01/03 07:23:45;;;;;;;2.57;1.50;;;;;;;5.78;89.96;96748.81;5000182;28;20183;-84
2023/01/03 07:26:10;;;;;;;3.50;1.10;;;;;;;5.79;90.61;96750.47;4989709;28;20279;-82
2023/01/03 07:28:36;;;;;;;1.63;0.90;;;;;;;5.88;89.80;96750.78;5002966;28;20242;-84
2023/01/03 07:31:04;;;;;;;3.73;1.87;;;;;;;5.92;89.74;96752.31;5010923;28;20601;-85
2023/01/03 07:33:30;;;;;;;1.50;1.23;;;;;;;5.92;89.92;96752.31;4989748;28;20192;-83
2023/01/03 07:36:02;;;;;;;1.70;1.30;;;;;;;5.90;90.33;96753.25;4994086;28;20652;-85
2023/01/03 07:38:27;;;;;;;1.20;1.10;;;;;;;5.95;90.59;96762.41;5007673;28;20737;-85
2023/01/03 07:41:00;;;;;;;4.30;1.53;;;;;;;6.02;90.26;96757.75;5002687;28;20179;-84
2023/01/03 07:43:37;;;;;;;2.50;1.23;;;;;;;6.06;90.00;96759.22;4996370;28;20640;-85
2023/01/03 07:46:18;;;;;;;3.10;1.50;;;;;;;6.07;89.85;96763.44;4993972;28;20241;-85
2023/01/03 07:48:46;;;;;;;2.67;1.77;;;;;;;5.97;90.02;96773.47;4999512;28;20622;-84
2023/01/03 07:51:13;;;;;;;3.23;1.80;;;;;;;6.08;89.92;96767.69;5001126;28;20723;-85
2023/01/03 07:53:39;;;;;;;1.93;1.30;;;;;;;6.15;89.19;96768.97;4984737;28;20279;-85
2023/01/03 07:56:10;;;;;;;1.67;1.50;;;;;;;6.20;88.71;96781.63;5000622;28;20187;-85
2023/01/03 07:58:36;;;;;;;1.57;1.20;;;;;;;6.13;88.69;96778.56;4968618;28;20208;-85
2023/01/03 08:01:06;;;;;;;1.67;1.30;;;;;;;6.14;89.09;96771.66;4985446;28;20190;-85
2023/01/03 08:03:32;;;;;;;3.30;1.37;;;;;;;6.23;88.92;96777.09;4986779;28;20187;-85
2023/01/03 08:06:05;;;;;;;3.10;1.10;;;;;;;6.30;88.41;96775.00;4981836;28;20669;-85
2023/01/03 08:08:31;;;;;;;1.27;1.07;;;;;;;6.31;87.78;96771.50;5006671;28;20225;-82
2023/01/03 08:13:41;;;;;;;4.53;1.20;;;;;;;6.28;86.95;96773.44;4993670;28;20238;-83
2023/01/03 08:16:10;;;;;;;2.67;1.30;;;;;;;6.30;87.26;96764.66;5000211;28;20434;-81
2023/01/03 08:18:36;;;;;;;1.30;1.10;;;;;;;6.33;86.96;96769.63;4992024;28;20428;-83
2023/01/03 08:21:01;;;;;;;1.07;1.03;;;;;;;6.38;86.31;96774.53;4997977;28;20179;-85
2023/01/03 08:23:26;;;;;;;2.00;1.10;;;;;;;6.25;86.62;96774.41;5002010;28;20164;-84
2023/01/03 08:25:59;;;;;;;4.00;2.23;;;;;;;6.41;86.21;96779.50;5023852;28;20246;-84
2023/01/03 08:28:24;;;;;;;3.73;2.20;;;;;;;6.48;86.08;96791.13;5006594;28;20214;-85
2023/01/03 08:30:49;;;;;;;2.67;1.20;;;;;;;6.23;86.51;96786.59;5014289;28;20230;-86
2023/01/03 08:33:17;;;;;;;1.83;1.20;;;;;;;6.31;86.29;96786.97;5009757;28;20183;-86
2023/01/03 08:35:49;;;;;;;1.73;1.03;;;;;;;6.27;86.80;96787.22;5011325;28;20282;-86
2023/01/03 08:38:19;;;;;;;1.03;0.70;;;;;;;6.29;85.91;96786.22;4992151;28;20225;-86
2023/01/03 08:40:45;;;;;;;1.27;1.00;;;;;;;6.38;85.98;96795.19;4978121;28;20251;-87
2023/01/03 08:43:11;;;;;;;2.63;1.10;;;;;;;6.30;86.22;96802.53;4979323;28;20227;-84
2023/01/03 08:45:38;;;;;;;2.30;1.00;;;;;;;6.25;86.45;96805.38;4988183;28;20552;-85
2023/01/03 08:48:04;;;;;;;3.60;1.67;;;;;;;6.24;86.54;96795.97;4978701;28;20240;-85
2023/01/03 08:50:29;;;;;;;4.13;2.00;;;;;;;6.25;86.25;96800.22;5002370;28;20187;-84
2023/01/03 08:52:55;;;;;;;2.13;1.30;;;;;;;6.20;86.66;96807.41;4982950;28;20287;-85
2023/01/03 08:55:21;;;;;;;1.07;0.90;;;;;;;6.37;86.06;96809.84;4981763;28;20190;-87
2023/01/03 08:57:46;;;;;;;1.93;1.20;;;;;;;6.41;85.27;96815.63;5005148;28;20198;-85
2023/01/03 09:00:12;;;;;;;2.60;1.10;;;;;;;6.33;85.83;96813.50;4986086;28;20191;-85
2023/01/03 09:02:37;;;;;;;4.10;1.23;;;;;;;6.28;85.82;96812.97;4991262;28;20975;-87
2023/01/03 09:05:03;;;;;;;2.27;1.00;;;;;;;6.38;85.35;96815.81;4982210;28;20207;-82
2023/01/03 09:07:28;;;;;;;2.10;1.10;;;;;;;6.51;84.82;96825.31;5003687;28;20735;-85
2023/01/03 09:09:53;;;;;;;3.20;0.90;;;;;;;6.45;85.24;96836.00;4990020;28;20187;-87
2023/01/03 09:12:18;;;;;;;1.07;0.83;;;;;;;6.43;85.11;96824.94;5007099;28;20543;-87
2023/01/03 09:14:44;;;;;;;3.43;1.10;;;;;;;6.38;85.14;96824.38;4980332;28;20305;-88
2023/01/03 09:17:09;;;;;;;2.60;1.30;;;;;;;6.60;84.48;96825.69;4983256;28;20203;-86
2023/01/03 09:19:34;;;;;;;0.97;0.87;;;;;;;6.71;83.61;96828.44;4985094;28;20239;-87
2023/01/03 09:22:00;;;;;;;1.67;1.20;;;;;;;6.75;83.51;96824.75;4978641;28;20183;-88
2023/01/03 09:24:26;;;;;;;1.53;1.00;;;;;;;6.77;83.59;96826.31;4995658;28;20191;-87
2023/01/03 09:26:51;;;;;;;2.47;1.43;;;;;;;6.74;83.58;96838.59;4984523;28;20273;-86
2023/01/03 09:29:16;;;;;;;1.27;1.10;;;;;;;6.74;83.83;96841.19;5003962;28;20238;-87
2023/01/03 09:31:42;;;;;;;1.20;1.10;;;;;;;6.71;83.93;96838.75;4989574;28;20583;-85
2023/01/03 09:34:07;;;;;;;3.63;1.20;;;;;;;6.72;83.60;96851.59;5001751;28;20188;-85
2023/01/03 09:36:33;;;;;;;1.90;1.20;;;;;;;6.67;83.63;96843.28;5003995;28;20186;-85
2023/01/03 09:38:59;;;;;;;1.97;1.10;;;;;;;6.64;83.84;96847.81;4977384;28;20311;-85
2023/01/03 09:41:25;;;;;;;3.00;1.10;;;;;;;6.60;83.73;96854.06;4982795;28;20207;-85
2023/01/03 09:43:56;;;;;;;2.70;1.03;;;;;;;6.52;83.89;96844.19;4991130;28;20313;-84
2023/01/03 09:46:23;;;;;;;1.53;1.00;;;;;;;6.50;84.19;96852.03;4990954;28;20195;-85
2023/01/03 09:48:49;;;;;;;3.23;1.20;;;;;;;6.22;85.30;96841.69;4992581;28;20306;-84
2023/01/03 10:06:04;;;;;;;1.10;0.80;;;;;;;6.31;84.99;96845.47;5000029;28;20194;-83
2023/01/03 10:08:51;;;;;;;3.77;0.97;;;;;;;6.23;85.38;96844.16;4988655;28;20339;-83
2023/01/03 10:11:21;;;;;;;3.23;0.90;;;;;;;6.30;85.35;96843.81;4988395;28;20625;-83
2023/01/03 10:14:01;;;;;;;2.63;0.93;;;;;;;6.39;85.43;96843.28;4994156;28;20180;-83
2023/01/03 10:16:48;;;;;;;1.53;0.80;;;;;;;6.45;84.97;96846.34;4998390;28;20684;-83
2023/01/03 10:19:21;;;;;;;1.17;1.00;;;;;;;6.65;84.83;96842.56;5007944;28;20215;-84
2023/01/03 10:22:05;;;;;;;2.83;1.10;;;;;;;6.65;84.75;96842.56;4993278;28;20554;-83
2023/01/03 10:24:35;;;;;;;1.63;1.00;;;;;;;6.88;84.21;96851.47;4977819;28;20195;-84
2023/01/03 10:27:16;;;;;;;1.23;1.10;;;;;;;6.98;83.61;96856.91;4991026;28;20218;-83
2023/01/03 10:29:42;;;;;;;1.87;1.00;;;;;;;7.19;82.93;96847.03;4979590;28;20183;-81
2023/01/03 10:32:45;;;;;;;2.23;1.10;;;;;;;7.45;81.55;96848.00;4985073;28;20560;-83
2023/01/03 10:35:27;;;;;;;1.07;0.90;;;;;;;7.36;81.13;96841.66;4987911;28;20227;-83
2023/01/03 10:37:54;;;;;;;2.97;1.20;;;;;;;7.52;80.12;96834.59;4997322;28;20224;-81
2023/01/03 10:40:21;;;;;;;3.10;0.90;;;;;;;7.50;80.00;96838.19;4991454;28;20180;-83
2023/01/03 10:42:49;;;;;;;4.83;0.90;;;;;;;7.60;79.00;96840.09;5008913;28;20190;-83
2023/01/03 10:45:17;;;;;;;1.70;0.73;;;;;;;7.61;79.03;96828.00;5012585;28;20656;-83
2023/01/03 10:47:42;;;;;;;2.00;1.00;;;;;;;7.63;77.70;96833.91;4996568;28;20583;-84
2023/01/03 10:50:19;;;;;;;1.43;0.90;;;;;;;7.90;77.63;96826.13;4996208;28;20192;-83
2023/01/03 10:52:45;;;;;;;1.77;0.90;;;;;;;7.92;77.71;96825.06;4977965;28;20295;-83
2023/01/03 10:55:14;;;;;;;4.23;1.20;;;;;;;7.99;75.92;96820.34;4994382;28;20191;-81
2023/01/03 10:57:47;;;;;;;1.97;0.73;;;;;;;7.95;76.55;96818.88;5008358;28;20249;-81
2023/01/03 11:00:23;;;;;;;2.07;1.00;;;;;;;8.07;75.42;96812.09;4989845;28;20211;-83
2023/01/03 11:02:49;;;;;;;1.90;0.87;;;;;;;8.06;75.85;96808.66;4994104;28;20195;-82
2023/01/03 11:05:21;;;;;;;1.23;0.93;;;;;;;8.27;74.13;96815.91;4995114;28;20191;-86
2023/01/03 11:08:17;;;;;;;0.97;0.93;;;;;;;8.30;74.02;96819.13;5004544;28;20209;-85
2023/01/03 11:10:53;;;;;;;1.73;0.90;;;;;;;8.37;73.83;96814.41;4999893;28;20282;-85
2023/01/03 11:13:28;;;;;;;0.90;0.90;;;;;;;8.48;73.73;96817.09;4996102;28;20668;-83
2023/01/03 11:15:58;;;;;;;1.00;0.90;;;;;;;8.51;73.88;96819.50;4998388;28;20593;-83
2023/01/03 11:18:26;;;;;;;1.47;1.00;;;;;;;8.56;73.63;96816.56;5009123;28;20198;-85
2023/01/03 11:21:05;;;;;;;3.17;1.00;;;;;;;8.51;72.98;96811.72;4995455;28;20180;-84
2023/01/03 11:24:25;;;;;;;1.80;0.77;;;;;;;8.56;71.46;96813.97;5000830;28;20183;-85
2023/01/03 11:27:12;;;;;;;0.80;0.47;;;;;;;8.57;71.45;96800.97;4915263;29;20190;-86
2023/01/03 11:29:40;;;;;;;0.93;0.63;;;;;;;8.63;71.79;96808.28;4990823;28;20226;-86
2023/01/03 11:32:11;;;;;;;2.57;0.70;;;;;;;8.59;69.78;96806.03;5006098;28;20294;-85
2023/01/03 11:35:10;;;;;;;1.17;0.80;;;;;;;8.64;69.40;96812.53;5004515;28;20236;-84
2023/01/03 11:37:55;;;;;;;0.80;0.73;;;;;;;8.63;67.75;96816.06;4995804;28;20229;-84
2023/01/03 11:41:00;;;;;;;3.33;0.87;;;;;;;8.78;67.70;96798.66;4987567;28;20188;-85
2023/01/03 11:43:37;;;;;;;1.43;0.83;;;;;;;8.79;67.87;96798.53;5001333;28;20183;-85
2023/01/03 11:46:26;;;;;;;2.93;0.80;;;;;;;8.85;67.48;96793.88;5012148;28;20702;-84
2023/01/03 11:48:53;;;;;;;0.87;0.70;;;;;;;8.90;66.66;96797.78;4990841;28;20658;-86
2023/01/03 11:51:35;;;;;;;1.33;0.50;;;;;;;8.91;66.17;96791.66;4970484;28;20274;-85
2023/01/03 11:54:06;;;;;;;4.53;0.60;;;;;;;8.87;65.45;96786.81;4994269;28;20233;-85
2023/01/03 11:56:42;;;;;;;2.47;0.60;;;;;;;8.96;65.62;96788.78;4977821;28;20558;-85
2023/01/03 11:59:13;;;;;;;1.17;0.70;;;;;;;8.88;65.60;96793.66;5001539;28;20244;-83
2023/01/03 12:02:16;;;;;;;2.83;1.10;;;;;;;9.02;66.60;96791.78;4983498;28;20190;-84
2023/01/03 12:04:52;;;;;;;1.17;1.10;;;;;;;9.16;66.15;96789.94;4994851;28;20198;-84
2023/01/03 12:07:36;;;;;;;2.00;0.93;;;;;;;9.20;65.53;96789.63;4986864;28;20707;-83
2023/01/03 12:10:15;;;;;;;1.17;0.70;;;;;;;9.21;65.23;96785.28;5003146;28;20178;-85
2023/01/03 12:13:19;;;;;;;4.30;0.90;;;;;;;9.12;64.42;96786.75;4990006;28;20318;-84
2023/01/03 12:15:51;;;;;;;1.67;1.10;;;;;;;9.24;64.85;96783.28;5001704;28;20187;-85
2023/01/03 12:18:31;;;;;;;3.37;1.17;;;;;;;9.37;64.95;96775.47;5001986;28;20211;-85
2023/01/03 12:21:02;;;;;;;2.07;0.80;;;;;;;9.43;65.62;96785.38;5011116;28;20290;-84
2023/01/03 12:23:40;;;;;;;1.53;0.73;;;;;;;9.35;64.84;96788.53;4996186;28;20191;-84
2023/01/03 12:26:10;;;;;;;1.17;0.80;;;;;;;9.26;64.58;96781.41;4980443;28;20183;-84
2023/01/03 12:28:59;;;;;;;1.83;0.50;;;;;;;9.13;64.79;96785.00;5000112;28;20208;-84
2023/01/03 12:31:38;;;;;;;0.67;0.60;;;;;;;9.14;65.46;96784.06;4994786;28;20710;-85
2023/01/03 12:34:18;;;;;;;1.80;0.80;;;;;;;9.07;64.77;96775.88;4976561;28;20191;-86
2023/01/03 12:36:58;;;;;;;1.00;0.80;;;;;;;8.94;66.03;96775.94;4996594;28;20183;-84
2023/01/03 12:39:31;;;;;;;4.10;1.50;;;;;;;8.84;65.91;96777.50;4999164;28;20218;-85
2023/01/03 12:42:02;;;;;;;3.40;1.10;;;;;;;8.98;66.13;96773.94;5007972;28;20171;-82
2023/01/03 12:44:33;;;;;;;1.90;1.20;;;;;;;9.05;65.50;96781.19;4988699;28;20179;-83
2023/01/03 12:46:58;;;;;;;5.47;1.33;;;;;;;9.21;64.95;96769.72;5006928;28;20198;-81
2023/01/03 12:49:47;;;;;;;0.70;0.70;;;;;;;9.09;64.19;96764.47;5025061;28;20183;-83
2023/01/03 12:52:13;;;;;;;0.90;0.60;;;;;;;9.30;63.88;96767.31;4997598;28;20633;-84
2023/01/03 12:54:44;;;;;;;0.97;0.70;;;;;;;9.39;64.99;96762.41;4993870;28;20191;-85